sensor_id;sensor_type;location;lat;lon;timestamp;pressure;altitude;pressure_sealevel;temperature;humidity
68758;BME280;55747;51.998;4.466;2023-05-03T00:02:07;56353.81;;;-144.48;100.00
68758;BME280;55747;51.998;4.466;2023-05-03T00:04:32;56364.13;;;-144.48;100.00
68758;BME280;55747;51.998;4.466;2023-05-03T00:06:58;56357.94;;;-144.48;100.00
68758;BME280;55747;51.998;4.466;2023-05-03T00:09:23;56355.88;;;-144.48;100.00
68758;BME280;55747;51.998;4.466;2023-05-03T00:11:48;56326.94;;;-144.48;100.00
68758;BME280;55747;51.998;4.466;2023-05-03T00:14:13;56339.34;;;-144.48;100.00
68758;BME280;55747;51.998;4.466;2023-05-03T00:16:39;56357.94;;;-144.48;100.00
68758;BME280;55747;51.998;4.466;2023-05-03T00:19:04;56316.59;;;-144.48;100.00
68758;BME280;55747;51.998;4.466;2023-05-03T00:21:30;56324.88;;;-144.48;100.00
68758;BME280;55747;51.998;4.466;2023-05-03T00:23:55;56347.59;;;-144.48;100.00
68758;BME280;55747;51.998;4.466;2023-05-03T00:26:20;56329.00;;;-144.48;100.00
68758;BME280;55747;51.998;4.466;2023-05-03T00:28:46;56333.13;;;-144.48;100.00
68758;BME280;55747;51.998;4.466;2023-05-03T00:31:11;56343.47;;;-144.48;100.00
68758;BME280;55747;51.998;4.466;2023-05-03T00:33:36;56372.41;;;-144.48;100.00
68758;BME280;55747;51.998;4.466;2023-05-03T00:36:05;56320.72;;;-144.48;100.00
68758;BME280;55747;51.998;4.466;2023-05-03T00:38:30;56326.94;;;-144.48;100.00
68758;BME280;55747;51.998;4.466;2023-05-03T00:40:56;56355.88;;;-144.48;100.00
68758;BME280;55747;51.998;4.466;2023-05-03T00:43:24;56351.75;;;-144.48;100.00
68758;BME280;55747;51.998;4.466;2023-05-03T00:45:49;56345.53;;;-144.48;100.00
68758;BME280;55747;51.998;4.466;2023-05-03T00:48:15;56335.19;;;-144.48;100.00
68758;BME280;55747;51.998;4.466;2023-05-03T00:50:42;56341.41;;;-144.48;100.00
68758;BME280;55747;51.998;4.466;2023-05-03T00:53:07;56324.88;;;-144.48;100.00
68758;BME280;55747;51.998;4.466;2023-05-03T00:55:33;56345.53;;;-144.48;100.00
68758;BME280;55747;51.998;4.466;2023-05-03T00:57:58;56357.94;;;-144.48;100.00
68758;BME280;55747;51.998;4.466;2023-05-03T01:00:23;56337.25;;;-144.48;100.00
68758;BME280;55747;51.998;4.466;2023-05-03T01:02:49;56318.66;;;-144.48;100.00
68758;BME280;55747;51.998;4.466;2023-05-03T01:05:14;56339.34;;;-144.48;100.00
68758;BME280;55747;51.998;4.466;2023-05-03T01:12:57;56314.53;;;-144.48;100.00
68758;BME280;55747;51.998;4.466;2023-05-03T01:18:10;56335.19;;;-144.48;100.00
68758;BME280;55747;51.998;4.466;2023-05-03T01:20:37;56351.75;;;-144.48;100.00
68758;BME280;55747;51.998;4.466;2023-05-03T01:23:10;56320.72;;;-144.48;100.00
68758;BME280;55747;51.998;4.466;2023-05-03T01:25:38;56333.13;;;-144.48;100.00
68758;BME280;55747;51.998;4.466;2023-05-03T01:28:03;56337.25;;;-144.48;100.00
68758;BME280;55747;51.998;4.466;2023-05-03T01:30:29;56351.75;;;-144.48;100.00
68758;BME280;55747;51.998;4.466;2023-05-03T01:32:58;56339.34;;;-144.48;100.00
68758;BME280;55747;51.998;4.466;2023-05-03T01:37:57;56339.34;;;-144.48;100.00
68758;BME280;55747;51.998;4.466;2023-05-03T01:40:24;56349.66;;;-144.48;100.00
68758;BME280;55747;51.998;4.466;2023-05-03T01:42:51;56345.53;;;-144.48;100.00
68758;BME280;55747;51.998;4.466;2023-05-03T01:45:18;56308.31;;;-144.48;100.00
68758;BME280;55747;51.998;4.466;2023-05-03T01:47:44;56366.22;;;-144.48;100.00
68758;BME280;55747;51.998;4.466;2023-05-03T01:50:09;56368.28;;;-144.48;100.00
68758;BME280;55747;51.998;4.466;2023-05-03T01:52:34;56300.06;;;-144.48;100.00
68758;BME280;55747;51.998;4.466;2023-05-03T01:54:59;56343.47;;;-144.48;100.00
68758;BME280;55747;51.998;4.466;2023-05-03T01:57:25;56333.13;;;-144.48;100.00
68758;BME280;55747;51.998;4.466;2023-05-03T01:59:50;56357.94;;;-144.48;100.00
68758;BME280;55747;51.998;4.466;2023-05-03T02:02:15;56355.88;;;-144.48;100.00
68758;BME280;55747;51.998;4.466;2023-05-03T02:04:41;56326.94;;;-144.48;100.00
68758;BME280;55747;51.998;4.466;2023-05-03T02:07:06;56335.19;;;-144.48;100.00
68758;BME280;55747;51.998;4.466;2023-05-03T02:09:31;56333.13;;;-144.48;100.00
68758;BME280;55747;51.998;4.466;2023-05-03T02:11:57;56324.88;;;-144.48;100.00
68758;BME280;55747;51.998;4.466;2023-05-03T02:14:22;56357.94;;;-144.48;100.00
68758;BME280;55747;51.998;4.466;2023-05-03T02:16:47;56341.41;;;-144.48;100.00
68758;BME280;55747;51.998;4.466;2023-05-03T02:19:12;56341.41;;;-144.48;100.00
68758;BME280;55747;51.998;4.466;2023-05-03T02:21:38;56335.19;;;-144.48;100.00
68758;BME280;55747;51.998;4.466;2023-05-03T02:24:03;56364.13;;;-144.48;100.00
68758;BME280;55747;51.998;4.466;2023-05-03T02:26:28;56337.25;;;-144.48;100.00
68758;BME280;55747;51.998;4.466;2023-05-03T02:28:53;56384.81;;;-144.48;100.00
68758;BME280;55747;51.998;4.466;2023-05-03T02:31:20;56339.34;;;-144.48;100.00
68758;BME280;55747;51.998;4.466;2023-05-03T02:33:46;56355.88;;;-144.48;100.00
68758;BME280;55747;51.998;4.466;2023-05-03T02:36:11;56339.34;;;-144.48;100.00
68758;BME280;55747;51.998;4.466;2023-05-03T02:38:37;56355.88;;;-144.48;100.00
68758;BME280;55747;51.998;4.466;2023-05-03T02:41:02;56388.94;;;-144.48;100.00
68758;BME280;55747;51.998;4.466;2023-05-03T02:43:27;56351.75;;;-144.48;100.00
68758;BME280;55747;51.998;4.466;2023-05-03T02:45:53;56351.75;;;-144.48;100.00
68758;BME280;55747;51.998;4.466;2023-05-03T02:48:18;56337.25;;;-144.48;100.00
68758;BME280;55747;51.998;4.466;2023-05-03T02:50:43;56355.88;;;-144.48;100.00
68758;BME280;55747;51.998;4.466;2023-05-03T02:53:08;56316.59;;;-144.48;100.00
68758;BME280;55747;51.998;4.466;2023-05-03T02:55:34;56355.88;;;-144.48;100.00
68758;BME280;55747;51.998;4.466;2023-05-03T02:57:59;56357.94;;;-144.48;100.00
68758;BME280;55747;51.998;4.466;2023-05-03T03:00:25;56331.06;;;-144.48;100.00
68758;BME280;55747;51.998;4.466;2023-05-03T03:02:50;56320.72;;;-144.48;100.00
68758;BME280;55747;51.998;4.466;2023-05-03T03:05:15;56362.06;;;-144.48;100.00
68758;BME280;55747;51.998;4.466;2023-05-03T03:07:41;56343.47;;;-144.48;100.00
68758;BME280;55747;51.998;4.466;2023-05-03T03:10:07;56341.41;;;-144.48;100.00
68758;BME280;55747;51.998;4.466;2023-05-03T03:12:33;56341.41;;;-144.48;100.00
68758;BME280;55747;51.998;4.466;2023-05-03T03:14:59;56366.22;;;-144.48;100.00
68758;BME280;55747;51.998;4.466;2023-05-03T03:17:24;56329.00;;;-144.48;100.00
68758;BME280;55747;51.998;4.466;2023-05-03T03:19:50;56314.53;;;-144.48;100.00
68758;BME280;55747;51.998;4.466;2023-05-03T03:22:15;56329.00;;;-144.48;100.00
68758;BME280;55747;51.998;4.466;2023-05-03T03:24:40;56337.25;;;-144.48;100.00
68758;BME280;55747;51.998;4.466;2023-05-03T03:27:05;56357.94;;;-144.48;100.00
68758;BME280;55747;51.998;4.466;2023-05-03T03:29:31;56337.25;;;-144.48;100.00
68758;BME280;55747;51.998;4.466;2023-05-03T03:31:56;56388.94;;;-144.48;100.00
68758;BME280;55747;51.998;4.466;2023-05-03T03:34:21;56357.94;;;-144.48;100.00
68758;BME280;55747;51.998;4.466;2023-05-03T03:36:47;56366.22;;;-144.48;100.00
68758;BME280;55747;51.998;4.466;2023-05-03T03:39:12;56345.53;;;-144.48;100.00
68758;BME280;55747;51.998;4.466;2023-05-03T03:41:37;56355.88;;;-144.48;100.00
68758;BME280;55747;51.998;4.466;2023-05-03T03:44:03;56337.25;;;-144.48;100.00
68758;BME280;55747;51.998;4.466;2023-05-03T03:46:28;56374.47;;;-144.48;100.00
68758;BME280;55747;51.998;4.466;2023-05-03T03:48:53;56329.00;;;-144.48;100.00
68758;BME280;55747;51.998;4.466;2023-05-03T03:51:18;56378.63;;;-144.48;100.00
68758;BME280;55747;51.998;4.466;2023-05-03T03:53:44;56351.75;;;-144.48;100.00
68758;BME280;55747;51.998;4.466;2023-05-03T03:56:09;56360.00;;;-144.48;100.00
68758;BME280;55747;51.998;4.466;2023-05-03T03:58:34;56355.88;;;-144.48;100.00
68758;BME280;55747;51.998;4.466;2023-05-03T04:01:00;56320.72;;;-144.48;100.00
68758;BME280;55747;51.998;4.466;2023-05-03T04:03:25;56347.59;;;-144.48;100.00
68758;BME280;55747;51.998;4.466;2023-05-03T04:05:50;56349.66;;;-144.48;100.00
68758;BME280;55747;51.998;4.466;2023-05-03T04:08:16;56351.75;;;-144.48;100.00
68758;BME280;55747;51.998;4.466;2023-05-03T04:10:41;56384.81;;;-144.48;100.00
68758;BME280;55747;51.998;4.466;2023-05-03T04:13:06;56362.06;;;-144.48;100.00
68758;BME280;55747;51.998;4.466;2023-05-03T04:15:32;56337.25;;;-144.48;100.00
68758;BME280;55747;51.998;4.466;2023-05-03T04:17:58;56335.19;;;-144.48;100.00
68758;BME280;55747;51.998;4.466;2023-05-03T04:20:23;56372.41;;;-144.48;100.00
68758;BME280;55747;51.998;4.466;2023-05-03T04:22:48;56339.34;;;-144.48;100.00
68758;BME280;55747;51.998;4.466;2023-05-03T04:25:13;56335.19;;;-144.48;100.00
68758;BME280;55747;51.998;4.466;2023-05-03T04:27:41;56353.81;;;-144.48;100.00
68758;BME280;55747;51.998;4.466;2023-05-03T04:30:06;56378.63;;;-144.48;100.00
68758;BME280;55747;51.998;4.466;2023-05-03T04:32:32;56360.00;;;-144.48;100.00
68758;BME280;55747;51.998;4.466;2023-05-03T04:35:01;56368.28;;;-144.48;100.00
68758;BME280;55747;51.998;4.466;2023-05-03T04:37:26;56372.41;;;-144.48;100.00
68758;BME280;55747;51.998;4.466;2023-05-03T04:39:52;56364.13;;;-144.48;100.00
68758;BME280;55747;51.998;4.466;2023-05-03T04:42:17;56322.78;;;-144.48;100.00
68758;BME280;55747;51.998;4.466;2023-05-03T04:44:42;56318.66;;;-144.48;100.00
68758;BME280;55747;51.998;4.466;2023-05-03T04:47:08;56397.22;;;-144.48;100.00
68758;BME280;55747;51.998;4.466;2023-05-03T04:49:34;56343.47;;;-144.48;100.00
68758;BME280;55747;51.998;4.466;2023-05-03T04:51:59;56380.69;;;-144.48;100.00
68758;BME280;55747;51.998;4.466;2023-05-03T04:54:24;56368.28;;;-144.48;100.00
68758;BME280;55747;51.998;4.466;2023-05-03T04:56:50;56378.63;;;-144.48;100.00
68758;BME280;55747;51.998;4.466;2023-05-03T04:59:16;56391.00;;;-144.48;100.00
68758;BME280;55747;51.998;4.466;2023-05-03T05:01:41;56393.09;;;-144.48;100.00
68758;BME280;55747;51.998;4.466;2023-05-03T05:04:07;56393.09;;;-144.48;100.00
68758;BME280;55747;51.998;4.466;2023-05-03T05:06:32;56403.41;;;-144.48;100.00
68758;BME280;55747;51.998;4.466;2023-05-03T05:08:57;56419.97;;;-144.48;100.00
68758;BME280;55747;51.998;4.466;2023-05-03T05:11:22;56428.22;;;-144.48;100.00
68758;BME280;55747;51.998;4.466;2023-05-03T05:13:47;56372.41;;;-144.48;100.00
68758;BME280;55747;51.998;4.466;2023-05-03T05:16:13;56391.00;;;-144.48;100.00
68758;BME280;55747;51.998;4.466;2023-05-03T05:18:39;56407.56;;;-144.48;98.71
68758;BME280;55747;51.998;4.466;2023-05-03T05:21:04;56388.94;;;-144.48;94.67
68758;BME280;55747;51.998;4.466;2023-05-03T05:23:30;56393.09;;;-144.48;90.92
68758;BME280;55747;51.998;4.466;2023-05-03T05:25:55;56411.69;;;-144.48;87.96
68758;BME280;55747;51.998;4.466;2023-05-03T05:28:24;56388.94;;;-144.48;86.94
68758;BME280;55747;51.998;4.466;2023-05-03T05:30:49;56393.09;;;-144.48;84.86
68758;BME280;55747;51.998;4.466;2023-05-03T05:33:15;56380.69;;;-144.48;81.65
68758;BME280;55747;51.998;4.466;2023-05-03T05:35:43;56399.28;;;-144.48;80.28
68758;BME280;55747;51.998;4.466;2023-05-03T05:38:09;56380.69;;;-144.48;78.15
68758;BME280;55747;51.998;4.466;2023-05-03T05:40:34;56405.50;;;-144.48;76.41
68758;BME280;55747;51.998;4.466;2023-05-03T05:43:00;56384.81;;;-144.48;75.40
68758;BME280;55747;51.998;4.466;2023-05-03T05:45:25;56401.34;;;-144.48;75.13
68758;BME280;55747;51.998;4.466;2023-05-03T05:47:50;56405.50;;;-144.48;73.05
68758;BME280;55747;51.998;4.466;2023-05-03T05:50:15;56374.47;;;-144.48;71.94
68758;BME280;55747;51.998;4.466;2023-05-03T05:52:41;56407.56;;;-144.48;69.11
68758;BME280;55747;51.998;4.466;2023-05-03T05:55:06;56370.34;;;-144.48;65.20
68758;BME280;55747;51.998;4.466;2023-05-03T05:57:31;56405.50;;;-144.48;68.53
68758;BME280;55747;51.998;4.466;2023-05-03T05:59:56;56434.44;;;-144.48;67.33
68758;BME280;55747;51.998;4.466;2023-05-03T06:02:22;56399.28;;;-144.48;63.40
68758;BME280;55747;51.998;4.466;2023-05-03T06:04:48;56343.47;;;-144.48;61.91
68758;BME280;55747;51.998;4.466;2023-05-03T06:07:14;56386.88;;;-144.48;59.98
68758;BME280;55747;51.998;4.466;2023-05-03T06:09:40;56366.22;;;-144.48;59.21
68758;BME280;55747;51.998;4.466;2023-05-03T06:12:06;56388.94;;;-144.48;59.36
68758;BME280;55747;51.998;4.466;2023-05-03T06:14:32;56376.53;;;-144.48;58.39
68758;BME280;55747;51.998;4.466;2023-05-03T06:16:57;56401.34;;;-144.48;58.93
68758;BME280;55747;51.998;4.466;2023-05-03T06:19:23;56370.34;;;-144.48;57.79
68758;BME280;55747;51.998;4.466;2023-05-03T06:21:49;56366.22;;;-144.48;57.25
68758;BME280;55747;51.998;4.466;2023-05-03T06:24:15;56401.34;;;-144.48;55.71
68758;BME280;55747;51.998;4.466;2023-05-03T06:26:44;56405.50;;;-144.48;56.16
68758;BME280;55747;51.998;4.466;2023-05-03T06:29:10;56401.34;;;-144.48;55.18
68758;BME280;55747;51.998;4.466;2023-05-03T06:31:35;56378.63;;;-144.48;54.85
68758;BME280;55747;51.998;4.466;2023-05-03T06:34:00;56384.81;;;-144.48;51.86
68758;BME280;55747;51.998;4.466;2023-05-03T06:36:25;56393.09;;;-144.48;50.77
68758;BME280;55747;51.998;4.466;2023-05-03T06:38:51;56397.22;;;-144.48;50.35
68758;BME280;55747;51.998;4.466;2023-05-03T06:41:16;56378.63;;;-144.48;50.19
68758;BME280;55747;51.998;4.466;2023-05-03T06:43:42;56386.88;;;-144.48;51.83
68758;BME280;55747;51.998;4.466;2023-05-03T06:46:07;56397.22;;;-144.48;51.05
68758;BME280;55747;51.998;4.466;2023-05-03T06:48:32;56386.88;;;-144.48;51.30
68758;BME280;55747;51.998;4.466;2023-05-03T06:50:57;56362.06;;;-144.48;49.88
68758;BME280;55747;51.998;4.466;2023-05-03T06:53:22;56353.81;;;-144.48;49.86
68758;BME280;55747;51.998;4.466;2023-05-03T06:55:48;56366.22;;;-144.48;49.53
68758;BME280;55747;51.998;4.466;2023-05-03T06:58:13;56351.75;;;-144.48;49.48
68758;BME280;55747;51.998;4.466;2023-05-03T07:00:38;56351.75;;;-144.48;48.71
68758;BME280;55747;51.998;4.466;2023-05-03T07:03:04;56368.28;;;-144.48;49.02
68758;BME280;55747;51.998;4.466;2023-05-03T07:05:29;56360.00;;;-144.48;48.58
68758;BME280;55747;51.998;4.466;2023-05-03T07:07:55;56341.41;;;-144.48;48.14
68758;BME280;55747;51.998;4.466;2023-05-03T07:10:20;56326.94;;;-144.48;46.83
68758;BME280;55747;51.998;4.466;2023-05-03T07:12:45;56368.28;;;-144.48;47.69
68758;BME280;55747;51.998;4.466;2023-05-03T07:15:10;56329.00;;;-144.48;47.24
68758;BME280;55747;51.998;4.466;2023-05-03T07:17:35;56364.13;;;-144.48;48.61
68758;BME280;55747;51.998;4.466;2023-05-03T07:20:01;56351.75;;;-144.48;47.07
68758;BME280;55747;51.998;4.466;2023-05-03T07:22:26;56345.53;;;-144.48;47.14
68758;BME280;55747;51.998;4.466;2023-05-03T07:24:52;56341.41;;;-144.48;47.62
68758;BME280;55747;51.998;4.466;2023-05-03T07:27:18;56355.88;;;-144.48;47.10
68758;BME280;55747;51.998;4.466;2023-05-03T07:29:44;56360.00;;;-144.48;43.90
68758;BME280;55747;51.998;4.466;2023-05-03T07:32:09;56378.63;;;-144.48;44.01
68758;BME280;55747;51.998;4.466;2023-05-03T07:34:34;56380.69;;;-144.48;44.66
68758;BME280;55747;51.998;4.466;2023-05-03T07:36:59;56339.34;;;-144.48;44.83
68758;BME280;55747;51.998;4.466;2023-05-03T07:39:25;56372.41;;;-144.48;45.57
68758;BME280;55747;51.998;4.466;2023-05-03T07:41:50;56355.88;;;-144.48;45.29
68758;BME280;55747;51.998;4.466;2023-05-03T07:44:15;56370.34;;;-144.48;44.75
68758;BME280;55747;51.998;4.466;2023-05-03T07:46:43;56357.94;;;-144.48;44.76
68758;BME280;55747;51.998;4.466;2023-05-03T07:49:08;56322.78;;;-144.48;44.56
68758;BME280;55747;51.998;4.466;2023-05-03T07:51:34;56366.22;;;-144.48;43.17
68758;BME280;55747;51.998;4.466;2023-05-03T07:53:59;56366.22;;;-144.48;43.76
68758;BME280;55747;51.998;4.466;2023-05-03T07:56:26;56353.81;;;-144.48;45.00
68758;BME280;55747;51.998;4.466;2023-05-03T07:58:51;56353.81;;;-144.48;44.24
68758;BME280;55747;51.998;4.466;2023-05-03T08:01:16;56345.53;;;-144.48;43.98
68758;BME280;55747;51.998;4.466;2023-05-03T08:03:41;56343.47;;;-144.48;42.11
68758;BME280;55747;51.998;4.466;2023-05-03T08:06:08;56351.75;;;-144.48;42.01
68758;BME280;55747;51.998;4.466;2023-05-03T08:08:33;56370.34;;;-144.48;42.01
68758;BME280;55747;51.998;4.466;2023-05-03T08:11:00;56337.25;;;-144.48;41.89
68758;BME280;55747;51.998;4.466;2023-05-03T08:13:25;56339.34;;;-144.48;40.53
68758;BME280;55747;51.998;4.466;2023-05-03T08:15:50;56326.94;;;-144.48;38.77
68758;BME280;55747;51.998;4.466;2023-05-03T08:18:16;56331.06;;;-144.48;39.35
68758;BME280;55747;51.998;4.466;2023-05-03T08:20:41;56312.47;;;-144.48;38.92
68758;BME280;55747;51.998;4.466;2023-05-03T08:23:07;56326.94;;;-144.48;39.07
68758;BME280;55747;51.998;4.466;2023-05-03T08:25:33;56347.59;;;-144.48;39.80
68758;BME280;55747;51.998;4.466;2023-05-03T08:28:00;56333.13;;;-144.48;38.79
68758;BME280;55747;51.998;4.466;2023-05-03T08:30:26;56370.34;;;-144.48;39.14
68758;BME280;55747;51.998;4.466;2023-05-03T08:32:51;56362.06;;;-144.48;38.93
68758;BME280;55747;51.998;4.466;2023-05-03T08:35:17;56339.34;;;-144.48;39.20
68758;BME280;55747;51.998;4.466;2023-05-03T08:37:42;56308.31;;;-144.48;39.03
68758;BME280;55747;51.998;4.466;2023-05-03T08:40:08;56357.94;;;-144.48;38.43
68758;BME280;55747;51.998;4.466;2023-05-03T08:42:39;56333.13;;;-144.48;37.97
68758;BME280;55747;51.998;4.466;2023-05-03T08:45:05;56312.47;;;-144.48;37.70
68758;BME280;55747;51.998;4.466;2023-05-03T08:47:32;56312.47;;;-144.48;36.20
68758;BME280;55747;51.998;4.466;2023-05-03T08:50:02;56298.00;;;-144.48;37.51
68758;BME280;55747;51.998;4.466;2023-05-03T08:52:28;56316.59;;;-144.48;36.50
68758;BME280;55747;51.998;4.466;2023-05-03T08:54:54;56347.59;;;-144.48;37.45
68758;BME280;55747;51.998;4.466;2023-05-03T08:57:19;56295.91;;;-144.48;36.75
68758;BME280;55747;51.998;4.466;2023-05-03T08:59:48;56314.53;;;-144.48;37.20
68758;BME280;55747;51.998;4.466;2023-05-03T09:02:16;56349.66;;;-144.48;37.52
68758;BME280;55747;51.998;4.466;2023-05-03T09:04:41;56306.25;;;-144.48;38.19
68758;BME280;55747;51.998;4.466;2023-05-03T09:07:10;56306.25;;;-144.48;36.62
68758;BME280;55747;51.998;4.466;2023-05-03T09:09:43;56302.13;;;-144.48;36.38
68758;BME280;55747;51.998;4.466;2023-05-03T09:12:08;56318.66;;;-144.48;35.79
68758;BME280;55747;51.998;4.466;2023-05-03T09:14:43;56329.00;;;-144.48;36.52
68758;BME280;55747;51.998;4.466;2023-05-03T09:17:15;56314.53;;;-144.48;35.84
68758;BME280;55747;51.998;4.466;2023-05-03T09:19:54;56304.19;;;-144.48;33.86
68758;BME280;55747;51.998;4.466;2023-05-03T09:22:21;56289.72;;;-144.48;33.59
68758;BME280;55747;51.998;4.466;2023-05-03T09:24:50;56295.91;;;-144.48;32.64
68758;BME280;55747;51.998;4.466;2023-05-03T09:27:17;56298.00;;;-144.48;33.61
68758;BME280;55747;51.998;4.466;2023-05-03T09:29:43;56302.13;;;-144.48;33.96
68758;BME280;55747;51.998;4.466;2023-05-03T09:32:08;56287.66;;;-144.48;35.48
68758;BME280;55747;51.998;4.466;2023-05-03T09:34:37;56306.25;;;-144.48;35.16
68758;BME280;55747;51.998;4.466;2023-05-03T09:37:02;56304.19;;;-144.48;36.01
68758;BME280;55747;51.998;4.466;2023-05-03T09:39:28;56300.06;;;-144.48;35.18
68758;BME280;55747;51.998;4.466;2023-05-03T09:41:53;56302.13;;;-144.48;36.10
68758;BME280;55747;51.998;4.466;2023-05-03T09:44:18;56300.06;;;-144.48;34.47
68758;BME280;55747;51.998;4.466;2023-05-03T09:49:29;56287.66;;;-144.48;35.21
68758;BME280;55747;51.998;4.466;2023-05-03T09:51:55;56264.91;;;-144.48;33.48
68758;BME280;55747;51.998;4.466;2023-05-03T09:54:20;56285.59;;;-144.48;33.16
68758;BME280;55747;51.998;4.466;2023-05-03T09:56:49;56279.38;;;-144.48;33.33
68758;BME280;55747;51.998;4.466;2023-05-03T09:59:14;56306.25;;;-144.48;32.62
68758;BME280;55747;51.998;4.466;2023-05-03T10:01:40;56269.03;;;-144.48;33.04
68758;BME280;55747;51.998;4.466;2023-05-03T10:04:06;56295.91;;;-144.48;34.03
68758;BME280;55747;51.998;4.466;2023-05-03T10:06:37;56300.06;;;-144.48;33.60
68758;BME280;55747;51.998;4.466;2023-05-03T10:09:06;56306.25;;;-144.48;36.85
68758;BME280;55747;51.998;4.466;2023-05-03T10:11:34;56295.91;;;-144.48;35.79
68758;BME280;55747;51.998;4.466;2023-05-03T10:14:00;56295.91;;;-144.48;35.27
68758;BME280;55747;51.998;4.466;2023-05-03T10:16:26;56283.50;;;-144.48;35.68
68758;BME280;55747;51.998;4.466;2023-05-03T10:18:55;56289.72;;;-144.48;33.65
68758;BME280;55747;51.998;4.466;2023-05-03T10:21:24;56279.38;;;-144.48;33.73
68758;BME280;55747;51.998;4.466;2023-05-03T10:26:34;56308.31;;;-144.48;34.84
68758;BME280;55747;51.998;4.466;2023-05-03T10:29:00;56238.03;;;-144.48;32.30
68758;BME280;55747;51.998;4.466;2023-05-03T10:31:42;56281.44;;;-144.48;32.73
68758;BME280;55747;51.998;4.466;2023-05-03T10:34:18;56312.47;;;-144.48;36.47
68758;BME280;55747;51.998;4.466;2023-05-03T10:36:44;56279.38;;;-144.48;34.70
68758;BME280;55747;51.998;4.466;2023-05-03T10:39:12;56314.53;;;-144.48;33.36
68758;BME280;55747;51.998;4.466;2023-05-03T10:41:38;56295.91;;;-144.48;33.22
68758;BME280;55747;51.998;4.466;2023-05-03T10:44:03;56244.25;;;-144.48;34.19
68758;BME280;55747;51.998;4.466;2023-05-03T10:46:29;56283.50;;;-144.48;31.07
68758;BME280;55747;51.998;4.466;2023-05-03T10:51:53;56244.25;;;-144.48;32.88
68758;BME280;55747;51.998;4.466;2023-05-03T10:54:18;56293.84;;;-144.48;35.00
68758;BME280;55747;51.998;4.466;2023-05-03T10:56:50;56281.44;;;-144.48;35.76
68758;BME280;55747;51.998;4.466;2023-05-03T10:59:19;56275.25;;;-144.48;33.58
68758;BME280;55747;51.998;4.466;2023-05-03T11:01:45;56293.84;;;-144.48;34.75
68758;BME280;55747;51.998;4.466;2023-05-03T11:04:20;56260.78;;;-144.48;35.04
68758;BME280;55747;51.998;4.466;2023-05-03T11:06:48;56281.44;;;-144.48;34.34
68758;BME280;55747;51.998;4.466;2023-05-03T11:09:15;56271.13;;;-144.48;32.85
68758;BME280;55747;51.998;4.466;2023-05-03T11:11:41;56260.78;;;-144.48;31.18
68758;BME280;55747;51.998;4.466;2023-05-03T11:14:07;56289.72;;;-144.48;32.65
68758;BME280;55747;51.998;4.466;2023-05-03T11:16:33;56285.59;;;-144.48;33.48
68758;BME280;55747;51.998;4.466;2023-05-03T11:19:01;56281.44;;;-144.48;35.25
68758;BME280;55747;51.998;4.466;2023-05-03T11:21:27;56248.38;;;-144.48;32.62
68758;BME280;55747;51.998;4.466;2023-05-03T11:23:52;56275.25;;;-144.48;34.31
68758;BME280;55747;51.998;4.466;2023-05-03T11:26:17;56302.13;;;-144.48;34.30
68758;BME280;55747;51.998;4.466;2023-05-03T11:28:45;56275.25;;;-144.48;33.30
68758;BME280;55747;51.998;4.466;2023-05-03T11:31:12;56246.31;;;-144.48;32.66
68758;BME280;55747;51.998;4.466;2023-05-03T11:33:38;56260.78;;;-144.48;32.36
68758;BME280;55747;51.998;4.466;2023-05-03T11:36:05;56318.66;;;-144.48;34.22
68758;BME280;55747;51.998;4.466;2023-05-03T11:38:31;56240.09;;;-144.48;34.52
68758;BME280;55747;51.998;4.466;2023-05-03T11:40:56;56258.72;;;-144.48;31.81
68758;BME280;55747;51.998;4.466;2023-05-03T11:43:25;56277.31;;;-144.48;31.51
68758;BME280;55747;51.998;4.466;2023-05-03T11:45:55;56244.25;;;-144.48;32.25
68758;BME280;55747;51.998;4.466;2023-05-03T11:48:21;56256.63;;;-144.48;31.88
68758;BME280;55747;51.998;4.466;2023-05-03T11:50:51;56264.91;;;-144.48;33.34
68758;BME280;55747;51.998;4.466;2023-05-03T11:53:19;56262.84;;;-144.48;32.47
68758;BME280;55747;51.998;4.466;2023-05-03T11:55:46;56248.38;;;-144.48;31.58
68758;BME280;55747;51.998;4.466;2023-05-03T11:58:16;56250.44;;;-144.48;30.16
68758;BME280;55747;51.998;4.466;2023-05-03T12:00:45;56252.50;;;-144.48;30.68
68758;BME280;55747;51.998;4.466;2023-05-03T12:03:18;56269.03;;;-144.48;31.29
68758;BME280;55747;51.998;4.466;2023-05-03T12:05:44;56262.84;;;-144.48;31.70
68758;BME280;55747;51.998;4.466;2023-05-03T12:08:09;56254.56;;;-144.48;31.21
68758;BME280;55747;51.998;4.466;2023-05-03T12:10:35;56262.84;;;-144.48;29.26
68758;BME280;55747;51.998;4.466;2023-05-03T12:13:01;56221.50;;;-144.48;30.18
68758;BME280;55747;51.998;4.466;2023-05-03T12:15:37;56246.31;;;-144.48;30.61
68758;BME280;55747;51.998;4.466;2023-05-03T12:18:09;56240.09;;;-144.48;31.06
68758;BME280;55747;51.998;4.466;2023-05-03T12:20:35;56295.91;;;-144.48;30.07
68758;BME280;55747;51.998;4.466;2023-05-03T12:23:01;56260.78;;;-144.48;30.41
68758;BME280;55747;51.998;4.466;2023-05-03T12:25:29;56240.09;;;-144.48;30.03
68758;BME280;55747;51.998;4.466;2023-05-03T12:27:55;56256.63;;;-144.48;30.33
68758;BME280;55747;51.998;4.466;2023-05-03T12:30:22;56235.97;;;-144.48;29.95
68758;BME280;55747;51.998;4.466;2023-05-03T12:32:47;56260.78;;;-144.48;30.93
68758;BME280;55747;51.998;4.466;2023-05-03T12:35:12;56258.72;;;-144.48;30.78
68758;BME280;55747;51.998;4.466;2023-05-03T12:37:37;56295.91;;;-144.48;31.37
68758;BME280;55747;51.998;4.466;2023-05-03T12:40:03;56240.09;;;-144.48;30.24
68758;BME280;55747;51.998;4.466;2023-05-03T12:42:29;56250.44;;;-144.48;29.73
68758;BME280;55747;51.998;4.466;2023-05-03T12:44:58;56264.91;;;-144.48;30.93
68758;BME280;55747;51.998;4.466;2023-05-03T12:47:23;56244.25;;;-144.48;31.10
68758;BME280;55747;51.998;4.466;2023-05-03T12:49:48;56242.16;;;-144.48;31.48